Time;durP1;ratioP1;P1;durP2;ratioP2;P2;SDS_P1;SDS_P2;PMS_P1;PMS_P2;Temp;Humidity;BMP_temperature;BMP_pressure;BME280_temperature;BME280_humidity;BME280_pressure;Samples;Min_cycle;Max_cycle;Signal;HPM_P1;HPM_P2
2023/01/26 00:01:15;;;;;;;343.30;73.88;;;;;;;-144.87;100.00;61487.56;5020092;28;20072;-78
2023/01/26 00:03:42;;;;;;;340.77;66.93;;;;;;;-144.87;100.00;61487.56;5039103;28;20037;-77
2023/01/26 00:06:11;;;;;;;339.77;68.47;;;;;;;-144.87;100.00;61487.56;5017466;28;20434;-78
2023/01/26 00:08:38;;;;;;;323.10;63.38;;;;;;;-144.87;100.00;61487.56;5037913;28;20037;-77
2023/01/26 00:11:06;;;;;;;310.55;65.80;;;;;;;-144.87;100.00;61487.56;5007511;28;20029;-78
2023/01/26 00:13:33;;;;;;;305.45;63.42;;;;;;;-144.87;100.00;61487.56;5006707;28;20516;-77
2023/01/26 00:15:59;;;;;;;310.95;61.33;;;;;;;-144.87;100.00;61487.56;5003855;28;20042;-77
2023/01/26 00:18:26;;;;;;;327.83;66.35;;;;;;;-144.87;100.00;61487.56;5020650;28;20033;-77
2023/01/26 00:20:56;;;;;;;308.02;61.67;;;;;;;-144.87;100.00;61487.56;5023709;28;20057;-77
2023/01/26 00:23:23;;;;;;;304.92;60.88;;;;;;;-144.87;100.00;61487.56;5007344;28;20397;-77
2023/01/26 00:25:49;;;;;;;293.30;61.72;;;;;;;-144.87;100.00;61487.56;5021862;28;20069;-77
2023/01/26 00:28:16;;;;;;;299.25;61.83;;;;;;;-144.87;100.00;61487.56;5008348;28;20432;-77
2023/01/26 00:30:42;;;;;;;317.63;65.13;;;;;;;-144.87;100.00;61487.56;5037244;28;20050;-77
2023/01/26 00:33:08;;;;;;;286.38;62.38;;;;;;;-144.87;100.00;61487.56;5020343;28;20117;-77
2023/01/26 00:35:34;;;;;;;304.13;63.38;;;;;;;-144.87;100.00;61487.56;5020800;28;20042;-78
2023/01/26 00:38:02;;;;;;;305.15;61.97;;;;;;;-144.87;100.00;61487.56;5020031;28;20093;-78
2023/01/26 00:40:28;;;;;;;295.27;62.70;;;;;;;-144.87;100.00;61487.56;5003149;28;20077;-77
2023/01/26 00:42:54;;;;;;;294.58;61.22;;;;;;;-144.87;100.00;61487.56;5006250;28;20362;-77
2023/01/26 00:45:21;;;;;;;285.98;61.50;;;;;;;-144.87;100.00;61487.56;5017357;28;20125;-78
2023/01/26 00:47:47;;;;;;;262.58;58.45;;;;;;;-144.87;100.00;61487.56;5037562;28;20412;-78
2023/01/26 00:50:14;;;;;;;292.50;60.85;;;;;;;-144.87;100.00;61487.56;5020308;28;20038;-77
2023/01/26 00:52:40;;;;;;;284.25;59.25;;;;;;;-144.87;100.00;61487.56;4988467;28;21659;-78
2023/01/26 00:55:07;;;;;;;273.45;60.63;;;;;;;-144.87;100.00;61487.56;5004674;28;20037;-77
2023/01/26 00:57:33;;;;;;;280.65;58.80;;;;;;;-144.87;100.00;61487.56;5004686;28;20479;-77
2023/01/26 00:59:59;;;;;;;276.98;59.50;;;;;;;-144.87;100.00;61487.56;5021597;28;20037;-77
2023/01/26 01:02:25;;;;;;;264.60;57.97;;;;;;;-144.87;100.00;61487.56;4998134;28;20221;-77
2023/01/26 01:04:52;;;;;;;255.88;57.40;;;;;;;-144.87;100.00;61487.56;5005863;28;20951;-77
2023/01/26 01:07:18;;;;;;;256.92;56.13;;;;;;;-144.87;100.00;61487.56;5037024;28;20400;-77
2023/01/26 01:09:45;;;;;;;228.80;53.50;;;;;;;-144.87;100.00;61487.56;5005815;28;20104;-77
2023/01/26 01:12:12;;;;;;;262.13;55.95;;;;;;;-144.87;100.00;61487.56;4988027;28;20042;-77
2023/01/26 01:14:38;;;;;;;256.23;54.08;;;;;;;-144.87;100.00;61487.56;5021007;28;20404;-77
2023/01/26 01:17:04;;;;;;;244.68;53.13;;;;;;;-144.87;100.00;61487.56;5005373;28;20393;-77
2023/01/26 01:19:30;;;;;;;238.18;54.05;;;;;;;-144.87;100.00;61487.56;5007704;28;20045;-77
2023/01/26 01:21:57;;;;;;;239.18;53.17;;;;;;;-144.87;100.00;61487.56;5035382;28;20062;-77
2023/01/26 01:24:23;;;;;;;243.85;53.33;;;;;;;-144.87;100.00;61487.56;5020557;28;20034;-77
2023/01/26 01:26:49;;;;;;;222.88;52.63;;;;;;;-144.87;100.00;61487.56;5005293;28;20127;-77
2023/01/26 01:29:16;;;;;;;226.20;50.95;;;;;;;-144.87;100.00;61487.56;5002356;28;20463;-77
2023/01/26 01:31:42;;;;;;;239.95;51.00;;;;;;;-144.87;100.00;61487.56;5006694;28;20037;-77
2023/01/26 01:34:09;;;;;;;222.32;52.40;;;;;;;-144.87;100.00;61487.56;5036766;28;20482;-77
2023/01/26 01:36:35;;;;;;;232.50;51.55;;;;;;;-144.87;100.00;61487.56;5006070;28;20053;-77
2023/01/26 01:39:01;;;;;;;236.45;53.17;;;;;;;-144.87;100.00;61487.56;5008742;28;20324;-77
2023/01/26 01:41:28;;;;;;;237.48;54.88;;;;;;;-144.87;100.00;61487.56;5003625;28;20038;-77
2023/01/26 01:44:14;;;;;;;217.10;52.10;;;;;;;-144.87;100.00;61487.56;5022539;28;20037;-77
2023/01/26 01:47:10;;;;;;;205.02;48.60;;;;;;;-144.87;100.00;61487.56;5019700;28;20041;-77
2023/01/26 01:49:39;;;;;;;209.07;47.50;;;;;;;-144.87;100.00;61487.56;5002806;28;20034;-77
2023/01/26 01:52:17;;;;;;;225.63;50.35;;;;;;;-144.87;100.00;61487.56;5019497;28;20428;-78
2023/01/26 01:54:50;;;;;;;212.35;49.63;;;;;;;-144.87;100.00;61487.56;5015676;28;20037;-77
2023/01/26 01:57:30;;;;;;;197.15;49.92;;;;;;;-144.87;100.00;61487.56;5003378;28;20346;-77
2023/01/26 02:00:07;;;;;;;197.40;46.88;;;;;;;-144.87;100.00;61487.56;5005458;28;20069;-77
2023/01/26 02:02:43;;;;;;;222.02;50.53;;;;;;;-144.87;100.00;61487.56;5003522;28;20535;-77
2023/01/26 02:05:21;;;;;;;225.30;53.63;;;;;;;-144.87;100.00;61487.56;5016139;28;20034;-77
2023/01/26 02:07:48;;;;;;;223.45;48.58;;;;;;;-144.87;100.00;61487.56;5033719;28;20041;-77
2023/01/26 02:10:19;;;;;;;222.50;49.97;;;;;;;-144.87;100.00;61487.56;4988300;28;20394;-77
2023/01/26 02:12:47;;;;;;;215.43;48.47;;;;;;;-144.87;100.00;61487.56;5034584;28;20041;-77
2023/01/26 02:15:14;;;;;;;222.98;51.05;;;;;;;-144.87;100.00;61487.56;5020971;28;20026;-77
2023/01/26 02:17:41;;;;;;;213.85;49.35;;;;;;;-144.87;100.00;61487.56;5003260;28;20120;-77
2023/01/26 02:20:13;;;;;;;205.80;50.40;;;;;;;-144.87;100.00;61487.56;5038784;28;20404;-77
2023/01/26 02:22:51;;;;;;;208.88;49.20;;;;;;;-144.87;100.00;61487.56;5038038;28;20160;-78
2023/01/26 02:25:48;;;;;;;222.05;50.78;;;;;;;-144.87;100.00;61487.56;5037644;28;20037;-77
2023/01/26 02:28:16;;;;;;;233.30;51.97;;;;;;;-144.87;100.00;61487.56;5003187;28;20030;-77
2023/01/26 02:30:43;;;;;;;222.32;50.10;;;;;;;-144.87;100.00;61487.56;5021523;28;20048;-77
2023/01/26 02:33:20;;;;;;;210.57;50.13;;;;;;;-144.87;100.00;61487.56;4989554;28;20046;-77
2023/01/26 02:35:47;;;;;;;223.13;52.38;;;;;;;-144.87;100.00;61487.56;5021615;28;20049;-77
2023/01/26 02:38:14;;;;;;;211.02;50.58;;;;;;;-144.87;100.00;61487.56;5022030;28;20054;-77
2023/01/26 02:40:53;;;;;;;223.85;51.30;;;;;;;-144.87;100.00;61487.56;5019281;28;20468;-78
2023/01/26 02:43:22;;;;;;;211.40;48.03;;;;;;;-144.87;100.00;61487.56;5021379;28;20030;-77
2023/01/26 02:45:48;;;;;;;222.80;50.50;;;;;;;-144.87;100.00;61487.56;5020748;28;20030;-77
2023/01/26 02:49:45;;;;;;;241.93;50.63;;;;;;;-144.87;100.00;61487.56;5021109;28;20540;-77
2023/01/26 02:51:03;;;;;;;223.57;49.47;;;;;;;-144.87;100.00;61487.56;5039346;28;20120;-77
2023/01/26 02:53:30;;;;;;;220.68;48.03;;;;;;;-144.87;100.00;61487.56;5021724;28;20037;-76
2023/01/26 02:55:56;;;;;;;240.95;49.55;;;;;;;-144.87;100.00;61487.56;5004788;28;20034;-77
2023/01/26 02:58:23;;;;;;;250.38;54.35;;;;;;;-144.87;100.00;61487.56;5021127;28;20177;-77
2023/01/26 03:00:50;;;;;;;261.70;52.42;;;;;;;-144.87;100.00;61487.56;5021007;28;20068;-77
2023/01/26 03:03:23;;;;;;;241.10;52.35;;;;;;;-144.87;100.00;61487.56;5038468;28;20476;-77
2023/01/26 03:05:50;;;;;;;244.40;50.67;;;;;;;-144.87;100.00;61487.56;5037753;28;20478;-77
2023/01/26 03:08:17;;;;;;;225.23;50.60;;;;;;;-144.87;100.00;61487.56;5022284;28;20034;-77
2023/01/26 03:10:46;;;;;;;248.43;51.50;;;;;;;-144.87;100.00;61487.56;5034775;28;20516;-77
2023/01/26 03:13:13;;;;;;;257.73;50.55;;;;;;;-144.87;100.00;61487.56;5005107;28;20034;-77
2023/01/26 03:15:42;;;;;;;247.13;51.80;;;;;;;-144.87;100.00;61487.56;5020444;28;20034;-77
2023/01/26 03:29:43;;;;;;;239.90;50.50;;;;;;;-144.87;100.00;61487.56;5021104;28;20386;-77
2023/01/26 03:32:10;;;;;;;244.82;50.45;;;;;;;-144.87;100.00;61487.56;4993684;28;20389;-76
2023/01/26 03:34:37;;;;;;;247.82;49.95;;;;;;;-144.87;100.00;61487.56;5007410;28;20120;-76
2023/01/26 03:37:04;;;;;;;249.63;49.55;;;;;;;-144.87;100.00;61487.56;4991294;28;20036;-78
2023/01/26 03:56:26;;;;;;;258.25;47.88;;;;;;;-144.87;100.00;61487.56;5018777;28;20048;-77
2023/01/26 03:58:57;;;;;;;270.00;50.53;;;;;;;-144.87;100.00;61487.56;5040824;28;20133;-77
2023/01/26 04:01:26;;;;;;;;;;;;;;;-144.87;100.00;61487.56;5039443;28;20034;-77
2023/01/26 04:09:29;;;;;;;239.70;47.15;;;;;;;-144.87;100.00;61487.56;5040716;28;20400;-77
2023/01/26 04:11:57;;;;;;;261.80;47.78;;;;;;;-144.87;100.00;61487.56;4992108;28;20463;-76
2023/01/26 04:22:44;;;;;;;247.23;47.00;;;;;;;-144.87;100.00;61487.56;5007926;28;20133;-77
2023/01/26 04:25:14;;;;;;;;;;;;;;;-144.87;100.00;61487.56;5018944;28;20029;-77
2023/01/26 04:27:41;;;;;;;283.65;46.53;;;;;;;-144.87;100.00;61487.56;5034005;28;19937;-77
2023/01/26 04:30:10;;;;;;;261.15;47.88;;;;;;;-144.87;100.00;61487.56;4991566;28;20036;-76
2023/01/26 04:32:36;;;;;;;250.15;46.72;;;;;;;-144.87;100.00;61487.56;5039701;28;20030;-76
2023/01/26 04:35:04;;;;;;;296.52;50.38;;;;;;;-144.87;100.00;61487.56;4989712;28;20060;-77
2023/01/26 04:37:31;;;;;;;263.70;49.42;;;;;;;-144.87;100.00;61487.56;5005650;28;20038;-78
2023/01/26 04:39:58;;;;;;;271.08;49.78;;;;;;;-144.87;100.00;61487.56;4992058;28;20133;-76
2023/01/26 04:42:24;;;;;;;269.63;48.83;;;;;;;-144.87;100.00;61487.56;5025007;28;20499;-76
2023/01/26 04:44:52;;;;;;;265.45;47.25;;;;;;;-144.87;100.00;61487.56;5035224;28;20037;-77
2023/01/26 04:47:20;;;;;;;271.33;50.05;;;;;;;-144.87;100.00;61487.56;5009251;28;20228;-77
2023/01/26 04:49:46;;;;;;;237.07;45.35;;;;;;;-144.87;100.00;61487.56;4990001;28;20030;-77
2023/01/26 04:52:14;;;;;;;271.63;48.75;;;;;;;-144.87;100.00;61487.56;5035413;28;20445;-77
2023/01/26 04:54:41;;;;;;;287.10;49.00;;;;;;;-144.87;100.00;61487.56;5038034;28;20121;-77
2023/01/26 04:57:08;;;;;;;298.65;58.38;;;;;;;-144.87;100.00;61487.56;5040577;28;20040;-77
2023/01/26 04:59:35;;;;;;;267.83;50.10;;;;;;;-144.87;100.00;61487.56;5006714;28;20060;-77
2023/01/26 05:02:02;;;;;;;270.00;47.53;;;;;;;-144.87;100.00;61487.56;4990744;28;20026;-77
2023/01/26 05:04:29;;;;;;;278.33;48.22;;;;;;;-144.87;100.00;61487.56;5034567;28;20414;-77
2023/01/26 05:06:56;;;;;;;278.65;47.08;;;;;;;-144.87;100.00;61487.56;5005977;28;20104;-77
2023/01/26 05:09:25;;;;;;;311.02;49.72;;;;;;;-144.87;100.00;61487.56;5021406;28;20041;-77
2023/01/26 05:15:11;;;;;;;269.50;47.80;;;;;;;-144.87;100.00;61487.56;5006054;28;20080;-77
2023/01/26 05:17:51;;;;;;;311.85;48.20;;;;;;;-144.87;100.00;61487.56;5020672;28;20048;-78
2023/01/26 05:20:33;;;;;;;312.52;48.85;;;;;;;-144.87;100.00;61487.56;5011633;28;20034;-77
2023/01/26 05:23:23;;;;;;;287.85;47.47;;;;;;;-144.87;100.00;61487.56;5001730;28;20250;-77
2023/01/26 05:26:07;;;;;;;258.13;45.50;;;;;;;-144.87;100.00;61487.56;5034343;28;20116;-77
2023/01/26 05:28:44;;;;;;;267.10;47.63;;;;;;;-144.87;100.00;61487.56;4986654;28;20365;-77
2023/01/26 05:31:10;;;;;;;290.60;46.25;;;;;;;-144.87;100.00;61487.56;5035924;28;20136;-77
2023/01/26 05:33:36;;;;;;;312.73;48.30;;;;;;;-144.87;100.00;61487.56;5038327;28;20469;-77
2023/01/26 05:36:05;;;;;;;282.77;47.97;;;;;;;-144.87;100.00;61487.56;5015411;28;20053;-77
2023/01/26 05:38:33;;;;;;;305.52;48.50;;;;;;;-144.87;100.00;61487.56;5006612;28;20520;-77
2023/01/26 05:40:59;;;;;;;278.70;47.47;;;;;;;-144.87;100.00;61487.56;5036989;28;20018;-77
2023/01/26 05:43:27;;;;;;;296.75;47.30;;;;;;;-144.87;100.00;61487.56;5022953;28;20090;-77
2023/01/26 05:46:14;;;;;;;278.58;45.30;;;;;;;-144.87;100.00;61487.56;5006234;28;20037;-77
2023/01/26 05:48:42;;;;;;;304.58;46.40;;;;;;;-144.87;100.00;61487.56;5023459;28;20040;-77
2023/01/26 05:51:09;;;;;;;288.73;46.53;;;;;;;-144.87;100.00;61487.56;5039739;28;20048;-77
2023/01/26 05:53:37;;;;;;;270.60;49.03;;;;;;;-144.87;100.00;61487.56;5018837;28;20538;-77
2023/01/26 05:56:03;;;;;;;291.75;50.03;;;;;;;-144.87;100.00;61487.56;5021956;28;20040;-77
2023/01/26 05:58:32;;;;;;;349.55;50.55;;;;;;;-144.87;100.00;61487.56;5037316;28;20456;-77
2023/01/26 06:01:03;;;;;;;347.52;51.28;;;;;;;-144.87;100.00;61487.56;5018209;28;20497;-77
2023/01/26 06:03:33;;;;;;;323.30;51.38;;;;;;;-144.87;100.00;61487.56;5020042;28;20025;-77
2023/01/26 06:05:59;;;;;;;323.77;48.10;;;;;;;-144.87;100.00;61487.56;5022130;28;20026;-77
2023/01/26 06:08:35;;;;;;;347.85;48.28;;;;;;;-144.87;100.00;61487.56;5001728;28;20412;-76
2023/01/26 06:11:21;;;;;;;273.25;46.88;;;;;;;-144.87;100.00;61487.56;5005924;28;20034;-77
2023/01/26 06:14:01;;;;;;;331.95;49.50;;;;;;;-144.87;100.00;61487.56;4989249;28;20771;-77
2023/01/26 06:16:29;;;;;;;320.33;48.28;;;;;;;-144.87;100.00;61487.56;5039636;28;20111;-77
2023/01/26 06:18:56;;;;;;;354.35;49.80;;;;;;;-144.87;100.00;61487.56;5025140;28;20397;-77
2023/01/26 06:21:22;;;;;;;320.10;48.05;;;;;;;-144.87;100.00;61487.56;5008385;28;20073;-77
2023/01/26 06:23:48;;;;;;;332.67;47.58;;;;;;;-144.87;100.00;61487.56;5023170;28;20045;-77
2023/01/26 06:26:15;;;;;;;350.02;48.45;;;;;;;-144.87;100.00;61487.56;5021437;28;21132;-76
2023/01/26 06:28:42;;;;;;;306.55;47.90;;;;;;;-144.87;100.00;61487.56;5012253;28;20119;-77
2023/01/26 06:31:09;;;;;;;308.98;47.75;;;;;;;-144.87;100.00;61487.56;5021620;28;20041;-77
2023/01/26 06:33:37;;;;;;;286.50;45.55;;;;;;;-144.87;100.00;61487.56;4989901;28;20030;-77
2023/01/26 06:36:08;;;;;;;297.27;46.30;;;;;;;-144.87;100.00;61487.56;5022005;28;20041;-77
2023/01/26 06:38:37;;;;;;;274.17;46.50;;;;;;;-144.87;100.00;61487.56;5019868;28;20041;-77
2023/01/26 06:41:05;;;;;;;296.77;46.10;;;;;;;-144.87;100.00;61487.56;5036340;28;20109;-77
2023/01/26 06:43:33;;;;;;;292.63;44.13;;;;;;;-144.87;100.00;61487.56;5020802;28;20030;-79
2023/01/26 06:46:01;;;;;;;277.20;46.55;;;;;;;-144.87;100.00;61487.56;5034585;28;20459;-78
2023/01/26 06:48:29;;;;;;;300.95;46.08;;;;;;;-144.87;100.00;61487.56;5020136;28;20289;-76
2023/01/26 06:51:18;;;;;;;276.60;46.55;;;;;;;-144.87;100.00;61487.56;5037585;28;20042;-76
2023/01/26 06:53:52;;;;;;;289.58;48.70;;;;;;;-144.87;100.00;61487.56;5017666;28;20038;-77
2023/01/26 06:56:38;;;;;;;305.15;45.33;;;;;;;-144.87;100.00;61487.56;5022569;28;20030;-77
2023/01/26 06:59:26;;;;;;;279.40;45.28;;;;;;;-144.87;100.00;61487.56;5028614;28;20037;-77
2023/01/26 07:02:17;;;;;;;362.05;46.72;;;;;;;-144.87;100.00;61487.56;5035587;28;20045;-77
2023/01/26 07:04:44;;;;;;;299.00;47.03;;;;;;;-144.87;100.00;61487.56;5040331;28;21078;-76
2023/01/26 07:07:11;;;;;;;317.00;46.40;;;;;;;-144.87;100.00;61487.56;5041820;28;20121;-77
2023/01/26 07:09:37;;;;;;;436.70;49.65;;;;;;;-144.87;100.00;61487.56;5021691;28;20034;-79
2023/01/26 07:12:03;;;;;;;399.02;48.97;;;;;;;-144.87;100.00;61487.56;5023681;28;20034;-76
2023/01/26 07:14:31;;;;;;;448.52;49.70;;;;;;;-144.87;100.00;61487.56;5040411;28;20034;-76
2023/01/26 07:16:57;;;;;;;457.58;48.97;;;;;;;-144.87;100.00;61487.56;4995897;28;20037;-76
2023/01/26 07:19:24;;;;;;;390.70;50.65;;;;;;;-144.87;100.00;61487.56;5010659;28;20430;-78
2023/01/26 07:21:50;;;;;;;732.13;57.22;;;;;;;-144.87;100.00;61487.56;5015035;28;20125;-77
2023/01/26 07:24:16;;;;;;;747.13;60.78;;;;;;;-144.87;100.00;61487.56;5024124;28;20378;-77
2023/01/26 07:26:42;;;;;;;523.05;52.97;;;;;;;-144.87;100.00;61487.56;5035855;28;20041;-77
2023/01/26 07:29:08;;;;;;;448.08;49.88;;;;;;;-144.87;100.00;61487.56;5009487;28;20030;-77
2023/01/26 07:31:35;;;;;;;465.42;50.70;;;;;;;-144.87;100.00;61487.56;5006100;28;20527;-81
2023/01/26 07:34:01;;;;;;;514.15;50.25;;;;;;;-144.87;100.00;61487.56;5011787;28;20469;-77
2023/01/26 07:36:28;;;;;;;504.02;52.03;;;;;;;-144.87;100.00;61487.56;5012681;28;20409;-77
2023/01/26 07:38:54;;;;;;;476.55;51.58;;;;;;;-144.87;100.00;61487.56;5043150;28;20519;-78
2023/01/26 07:41:20;;;;;;;590.55;57.72;;;;;;;-144.87;100.00;61487.56;5011516;28;20052;-77
2023/01/26 07:43:48;;;;;;;540.67;53.92;;;;;;;-144.87;100.00;61487.56;5043065;28;20149;-77
2023/01/26 07:46:15;;;;;;;509.13;53.15;;;;;;;-144.87;100.00;61487.56;5015150;28;20485;-77
2023/01/26 07:48:41;;;;;;;472.65;51.78;;;;;;;-144.87;100.00;61487.56;5011731;28;20042;-78
2023/01/26 07:51:09;;;;;;;433.02;51.75;;;;;;;-144.87;100.00;61487.56;5012292;28;20545;-78
2023/01/26 07:53:41;;;;;;;402.45;50.85;;;;;;;-144.87;100.00;61487.56;5012168;28;20052;-79
2023/01/26 07:56:12;;;;;;;481.60;51.50;;;;;;;-144.87;100.00;61487.56;5034642;28;20409;-79
2023/01/26 07:58:39;;;;;;;389.90;48.53;;;;;;;-144.87;100.00;61487.56;5023013;28;20388;-81
2023/01/26 08:01:11;;;;;;;350.13;48.47;;;;;;;-144.87;100.00;61487.56;5019984;28;20116;-80
2023/01/26 08:03:38;;;;;;;338.67;46.83;;;;;;;-144.87;100.00;61487.56;5007060;28;20026;-81
2023/01/26 08:06:05;;;;;;;332.73;46.40;;;;;;;-144.87;100.00;61487.56;5040303;28;20044;-81
2023/01/26 08:08:35;;;;;;;336.40;44.63;;;;;;;-144.87;100.00;61487.56;5039908;28;20064;-80
2023/01/26 08:11:02;;;;;;;380.80;46.00;;;;;;;-144.87;100.00;61487.56;5009049;28;20053;-81
2023/01/26 08:13:29;;;;;;;313.15;45.78;;;;;;;-144.87;100.00;61487.56;5036271;28;20495;-79
2023/01/26 08:15:59;;;;;;;356.10;50.75;;;;;;;-144.87;100.00;61487.56;5042063;28;20038;-80
2023/01/26 08:18:25;;;;;;;287.08;43.08;;;;;;;-144.87;100.00;61487.56;5006172;28;20052;-82
2023/01/26 08:20:52;;;;;;;296.48;43.17;;;;;;;-144.87;100.00;61487.56;5019964;28;20041;-81
2023/01/26 08:23:19;;;;;;;275.13;39.85;;;;;;;-144.87;100.00;61487.56;5038982;28;20117;-80
2023/01/26 08:25:45;;;;;;;257.25;38.72;;;;;;;-144.87;100.00;61487.56;5022122;28;20136;-81
2023/01/26 08:28:12;;;;;;;253.90;42.78;;;;;;;-144.87;100.00;61487.56;5037888;28;20049;-80
2023/01/26 08:30:39;;;;;;;246.32;37.72;;;;;;;-144.87;100.00;61487.56;5008017;28;20117;-82
2023/01/26 08:33:05;;;;;;;234.63;36.85;;;;;;;-144.87;100.00;61487.56;5005670;28;20394;-80
2023/01/26 08:35:32;;;;;;;228.10;34.38;;;;;;;-144.87;100.00;61487.56;5006595;28;20123;-80
2023/01/26 08:37:58;;;;;;;197.82;31.45;;;;;;;-144.87;100.00;61487.56;5023081;28;20619;-79
2023/01/26 08:40:25;;;;;;;194.43;34.53;;;;;;;-144.87;100.00;61487.56;5022544;28;20120;-80
2023/01/26 08:42:51;;;;;;;189.98;34.35;;;;;;;-144.87;100.00;61487.56;5006692;28;20396;-80
2023/01/26 08:45:18;;;;;;;173.15;29.27;;;;;;;-144.87;100.00;61487.56;5006756;28;20045;-80
2023/01/26 08:47:47;;;;;;;135.55;23.13;;;;;;;-144.87;100.00;61487.56;5004794;28;20536;-80
2023/01/26 08:50:15;;;;;;;118.85;20.33;;;;;;;-144.87;100.00;61487.56;5006904;28;20117;-79
2023/01/26 08:52:41;;;;;;;97.35;14.88;;;;;;;-144.87;100.00;61487.56;5007252;28;20045;-82
2023/01/26 08:55:07;;;;;;;86.97;12.70;;;;;;;-144.87;100.00;61487.56;5009718;28;20034;-80
2023/01/26 08:57:34;;;;;;;66.63;10.20;;;;;;;-144.87;100.00;61487.56;5010716;28;20107;-80
2023/01/26 09:00:00;;;;;;;87.60;11.15;;;;;;;-144.87;100.00;61487.56;4993278;28;20057;-81
2023/01/26 09:02:26;;;;;;;84.72;9.88;;;;;;;-144.87;100.00;61487.56;5025717;28;20044;-79
2023/01/26 09:04:52;;;;;;;68.78;10.88;;;;;;;-144.87;100.00;61487.56;5011978;28;20441;-80
2023/01/26 09:07:20;;;;;;;76.68;8.23;;;;;;;-144.87;100.00;61487.56;5025501;28;20668;-81
2023/01/26 09:09:46;;;;;;;77.82;9.65;;;;;;;-144.87;100.00;61487.56;5011398;28;20145;-80
2023/01/26 09:12:12;;;;;;;61.92;6.70;;;;;;;-144.87;100.00;61487.56;5009646;28;20117;-80
2023/01/26 09:14:40;;;;;;;58.42;7.43;;;;;;;-144.87;100.00;61487.56;5010184;28;20053;-81
2023/01/26 09:17:07;;;;;;;68.15;7.03;;;;;;;-144.87;100.00;61487.56;5014787;28;20413;-79
2023/01/26 09:19:33;;;;;;;53.30;7.32;;;;;;;-144.87;100.00;61487.56;5023879;28;20034;-80
2023/01/26 09:21:59;;;;;;;64.30;7.70;;;;;;;-144.87;100.00;61487.56;5041657;28;20038;-81
2023/01/26 09:24:26;;;;;;;66.95;7.85;;;;;;;-144.87;100.00;61487.56;5010242;28;21633;-80
2023/01/26 09:26:52;;;;;;;51.35;6.40;;;;;;;-144.87;100.00;61487.56;5008916;28;20406;-81
2023/01/26 09:29:19;;;;;;;47.40;6.72;;;;;;;-144.87;100.00;61487.56;5009568;28;20061;-80
2023/01/26 09:31:45;;;;;;;57.95;7.80;;;;;;;-144.87;100.00;61487.56;5009395;28;20037;-81
2023/01/26 09:34:11;;;;;;;59.83;7.55;;;;;;;-144.87;100.00;61487.56;5009380;28;20421;-80
2023/01/26 09:36:37;;;;;;;64.10;7.45;;;;;;;-144.87;100.00;61487.56;5009686;28;20116;-81
2023/01/26 09:39:04;;;;;;;46.00;7.57;;;;;;;-144.87;100.00;61487.56;5010715;28;20462;-81
2023/01/26 09:42:07;;;;;;;54.10;6.65;;;;;;;-144.87;100.00;61487.56;5008482;28;20041;-81
2023/01/26 09:44:45;;;;;;;43.85;5.93;;;;;;;-144.87;100.00;61487.56;5009397;28;20036;-81
2023/01/26 09:47:37;;;;;;;56.30;6.25;;;;;;;-144.87;100.00;61487.56;5023419;28;20463;-81
2023/01/26 09:50:12;;;;;;;62.50;7.15;;;;;;;-144.87;100.00;61487.56;4999976;28;20563;-81
2023/01/26 09:52:59;;;;;;;56.47;7.60;;;;;;;-144.87;100.00;61487.56;5038199;28;20030;-82
2023/01/26 09:55:27;;;;;;;46.03;6.28;;;;;;;-144.87;100.00;61487.56;5007012;28;20150;-81
2023/01/26 09:58:04;;;;;;;43.15;4.97;;;;;;;-144.87;100.00;61487.56;5040605;28;20030;-80
2023/01/26 10:00:32;;;;;;;49.65;6.53;;;;;;;-144.87;100.00;61487.56;5024364;28;20509;-80
2023/01/26 10:03:15;;;;;;;46.45;6.53;;;;;;;-144.87;100.00;61487.56;5008166;28;20437;-81
2023/01/26 10:05:50;;;;;;;44.00;5.70;;;;;;;-144.87;100.00;61487.56;5017432;28;20580;-81
2023/01/26 10:08:36;;;;;;;47.70;7.07;;;;;;;-144.87;100.00;61487.56;5007498;28;20484;-79
2023/01/26 10:11:15;;;;;;;40.78;5.75;;;;;;;-144.87;100.00;61487.56;5007234;28;20436;-81
2023/01/26 10:13:56;;;;;;;50.03;5.57;;;;;;;-144.87;100.00;61487.56;5039929;28;20026;-80
2023/01/26 10:16:24;;;;;;;67.97;6.22;;;;;;;-144.87;100.00;61487.56;5012309;28;20373;-80
2023/01/26 10:19:06;;;;;;;40.28;5.78;;;;;;;-144.87;100.00;61487.56;5038809;28;20036;-81
2023/01/26 10:21:39;;;;;;;47.00;6.03;;;;;;;-144.87;100.00;61487.56;5036378;28;20193;-83
2023/01/26 10:24:09;;;;;;;51.22;5.53;;;;;;;-144.87;100.00;61487.56;5014916;28;20407;-81
2023/01/26 10:26:35;;;;;;;44.67;6.80;;;;;;;-144.87;100.00;61487.56;5035619;28;20033;-88
2023/01/26 10:29:01;;;;;;;58.47;7.68;;;;;;;-144.87;100.00;61487.56;5037033;28;20157;-81
2023/01/26 10:31:29;;;;;;;54.72;6.80;;;;;;;-144.87;100.00;61487.56;5020741;28;20044;-81
2023/01/26 10:33:59;;;;;;;51.05;7.28;;;;;;;-144.87;100.00;61487.56;5011843;28;20045;-81
2023/01/26 10:36:29;;;;;;;36.75;5.85;;;;;;;-144.87;100.00;61487.56;5036993;28;20425;-81
2023/01/26 10:39:09;;;;;;;52.83;6.95;;;;;;;-144.87;100.00;61487.56;5018043;28;20452;-80
2023/01/26 10:41:36;;;;;;;41.35;5.40;;;;;;;-144.87;100.00;61487.56;5007364;28;20034;-81
2023/01/26 10:44:31;;;;;;;40.55;5.18;;;;;;;-144.87;100.00;61487.56;5003097;28;20054;-81
2023/01/26 10:47:16;;;;;;;40.08;5.38;;;;;;;-144.87;100.00;61487.56;5022123;28;20118;-81
2023/01/26 10:49:43;;;;;;;32.17;5.90;;;;;;;-144.87;100.00;61487.56;5017775;28;20475;-80
2023/01/26 10:52:28;;;;;;;58.20;6.97;;;;;;;-144.87;100.00;61487.56;5005593;28;20120;-80
2023/01/26 10:55:19;;;;;;;45.50;6.45;;;;;;;-144.87;100.00;61487.56;5012572;28;20088;-81
2023/01/26 10:57:45;;;;;;;43.72;5.95;;;;;;;-144.87;100.00;61487.56;5004714;28;20038;-79
2023/01/26 11:00:23;;;;;;;45.25;5.68;;;;;;;-144.87;100.00;61487.56;5006254;28;20564;-81
2023/01/26 11:02:54;;;;;;;45.10;6.05;;;;;;;-144.87;100.00;61487.56;5004441;28;20038;-81
2023/01/26 11:05:21;;;;;;;39.90;6.18;;;;;;;-144.87;100.00;61487.56;5020831;28;20452;-80
2023/01/26 11:07:49;;;;;;;44.55;5.35;;;;;;;-144.87;100.00;61487.56;5039802;28;20036;-80
2023/01/26 11:10:21;;;;;;;32.70;4.72;;;;;;;-144.87;100.00;61487.56;5018711;28;20368;-80
2023/01/26 11:12:47;;;;;;;26.75;3.78;;;;;;;-144.87;100.00;61487.56;5035602;28;20045;-80
2023/01/26 11:15:21;;;;;;;37.80;5.38;;;;;;;-144.87;100.00;61487.56;5021663;28;20034;-83
2023/01/26 11:17:59;;;;;;;39.00;5.07;;;;;;;-144.87;100.00;61487.56;5038566;28;20034;-80
2023/01/26 11:20:48;;;;;;;44.88;5.88;;;;;;;-144.87;100.00;61487.56;5033445;28;20042;-80
2023/01/26 11:23:20;;;;;;;38.45;4.18;;;;;;;-144.87;100.00;61487.56;5033289;28;20042;-80
2023/01/26 11:26:10;;;;;;;32.20;5.45;;;;;;;-144.87;100.00;61487.56;5007481;28;20034;-81
2023/01/26 11:28:50;;;;;;;30.25;3.88;;;;;;;-144.87;100.00;61487.56;5021210;28;20037;-80
2023/01/26 11:31:45;;;;;;;28.73;5.37;;;;;;;-144.87;100.00;61487.56;5016632;28;20041;-81
2023/01/26 11:34:38;;;;;;;38.00;6.40;;;;;;;-144.87;100.00;61487.56;5003776;28;20045;-80
2023/01/26 11:37:29;;;;;;;25.58;3.97;;;;;;;-144.87;100.00;61487.56;5019231;28;20041;-81
2023/01/26 11:40:01;;;;;;;;;;;;;;;-144.87;100.00;61487.56;5021039;28;20029;-81
2023/01/26 11:42:51;;;;;;;35.65;4.10;;;;;;;-144.87;100.00;61487.56;5043271;28;19917;-82
2023/01/26 11:45:26;;;;;;;30.48;4.40;;;;;;;-144.87;100.00;61487.56;5005602;28;20116;-80
2023/01/26 11:48:12;;;;;;;33.45;6.63;;;;;;;-144.87;100.00;61487.56;5037342;28;20033;-79
2023/01/26 11:51:03;;;;;;;24.65;5.30;;;;;;;-144.87;100.00;61487.56;5004457;28;20044;-81
2023/01/26 11:53:30;;;;;;;36.58;4.45;;;;;;;-144.87;100.00;61487.56;5022373;28;20451;-79